Time;durP1;ratioP1;P1;durP2;ratioP2;P2;SDS_P1;SDS_P2;PMS_P1;PMS_P2;Temp;Humidity;BMP_temperature;BMP_pressure;BME280_temperature;BME280_humidity;BME280_pressure;Samples;Min_cycle;Max_cycle;Signal;HPM_P1;HPM_P2
2021/08/20 00:00:42;;;;;;;8.93;5.39;;;;;;;;;;364206;146;857287;-58
2021/08/20 00:01:44;;;;;;;10.25;5.32;;;;;;;;;;364471;146;857169;-59
2021/08/20 00:02:45;;;;;;;9.81;5.10;;;;;;;;;;361964;147;857294;-58
2021/08/20 00:03:47;;;;;;;13.09;5.89;;;;;;;;;;361248;146;858161;-58
2021/08/20 00:04:48;;;;;;;10.09;5.65;;;;;;;;;;359896;146;857301;-58
2021/08/20 00:05:50;;;;;;;12.01;5.83;;;;;;;;;;363037;148;858635;-57
2021/08/20 00:06:52;;;;;;;9.81;5.21;;;;;;;;;;362044;146;858321;-59
2021/08/20 00:07:54;;;;;;;12.89;5.25;;;;;;;;;;360652;147;858178;-59
2021/08/20 00:08:55;;;;;;;9.77;5.67;;;;;;;;;;363190;146;857313;-57
2021/08/20 00:09:57;;;;;;;10.39;5.26;;;;;;;;;;365997;146;858841;-57
2021/08/20 00:11:03;;;;;;;8.01;5.32;;;;;;;;;;354757;150;859989;-57
2021/08/20 00:12:03;;;;;;;9.75;5.81;;;;;;;;;;350102;150;866206;-60
2021/08/20 00:13:04;;;;;;;8.68;5.47;;;;;;;;;;340693;154;857375;-60
2021/08/20 00:14:06;;;;;;;8.69;5.60;;;;;;;;;;355968;148;857367;-60
2021/08/20 00:15:08;;;;;;;11.53;5.55;;;;;;;;;;361122;146;857305;-60
2021/08/20 00:16:10;;;;;;;11.61;5.07;;;;;;;;;;360928;147;857698;-60
2021/08/20 00:17:12;;;;;;;12.31;5.38;;;;;;;;;;361355;148;858764;-59
2021/08/20 00:18:14;;;;;;;12.16;5.57;;;;;;;;;;359260;148;857334;-59
2021/08/20 00:19:15;;;;;;;7.28;4.74;;;;;;;;;;360243;147;865011;-59
2021/08/20 00:20:17;;;;;;;9.35;5.19;;;;;;;;;;359488;148;857129;-59
2021/08/20 00:21:19;;;;;;;9.44;4.91;;;;;;;;;;361401;147;857209;-59
2021/08/20 00:22:22;;;;;;;12.93;6.14;;;;;;;;;;360561;147;857280;-57
2021/08/20 00:23:23;;;;;;;15.66;5.99;;;;;;;;;;360704;147;857322;-58
2021/08/20 00:24:25;;;;;;;9.52;5.48;;;;;;;;;;363085;146;857272;-57
2021/08/20 00:25:27;;;;;;;10.56;4.91;;;;;;;;;;361375;146;859824;-58
2021/08/20 00:26:29;;;;;;;9.29;4.72;;;;;;;;;;361829;147;859315;-58
2021/08/20 00:27:31;;;;;;;11.68;5.36;;;;;;;;;;361458;146;858123;-57
2021/08/20 00:28:32;;;;;;;7.51;4.99;;;;;;;;;;360119;146;858824;-57
2021/08/20 00:29:34;;;;;;;12.96;5.20;;;;;;;;;;361762;147;858026;-58
2021/08/20 00:30:35;;;;;;;7.16;5.44;;;;;;;;;;360372;148;857245;-57
2021/08/20 00:31:37;;;;;;;10.99;5.04;;;;;;;;;;361634;147;864776;-58
2021/08/20 00:32:38;;;;;;;10.21;5.31;;;;;;;;;;363536;146;857191;-58
2021/08/20 00:33:40;;;;;;;8.63;5.00;;;;;;;;;;362083;146;857104;-58
2021/08/20 00:34:42;;;;;;;10.17;5.67;;;;;;;;;;360853;146;859799;-58
2021/08/20 00:35:43;;;;;;;10.09;5.44;;;;;;;;;;360905;146;859735;-60
2021/08/20 00:36:46;;;;;;;9.87;5.47;;;;;;;;;;358315;148;857235;-58
2021/08/20 00:37:47;;;;;;;9.99;5.50;;;;;;;;;;362535;146;857939;-58
2021/08/20 00:38:49;;;;;;;9.85;5.36;;;;;;;;;;360068;146;864919;-58
2021/08/20 00:39:50;;;;;;;11.59;6.09;;;;;;;;;;361304;148;857193;-58
2021/08/20 00:40:52;;;;;;;6.95;5.01;;;;;;;;;;361578;146;857196;-58
2021/08/20 00:41:54;;;;;;;13.22;5.75;;;;;;;;;;360771;148;864841;-58
2021/08/20 00:42:55;;;;;;;12.19;5.25;;;;;;;;;;361183;147;857183;-58
2021/08/20 00:43:57;;;;;;;12.01;5.20;;;;;;;;;;362649;148;859235;-58
2021/08/20 00:44:59;;;;;;;9.00;5.21;;;;;;;;;;359319;146;858929;-58
2021/08/20 00:46:01;;;;;;;7.05;4.88;;;;;;;;;;361794;147;860234;-58
2021/08/20 00:47:02;;;;;;;10.81;5.16;;;;;;;;;;359874;146;858652;-58
2021/08/20 00:48:04;;;;;;;9.03;4.78;;;;;;;;;;365862;146;858651;-59
2021/08/20 00:49:06;;;;;;;10.65;5.45;;;;;;;;;;360468;147;866925;-59
2021/08/20 00:50:09;;;;;;;11.46;5.25;;;;;;;;;;361904;146;865771;-58
2021/08/20 00:51:20;;;;;;;9.57;5.47;;;;;;;;;;361414;147;857292;-58
2021/08/20 00:52:22;;;;;;;12.84;5.31;;;;;;;;;;359839;148;857660;-58
2021/08/20 00:53:24;;;;;;;9.01;4.78;;;;;;;;;;365057;146;858979;-58
2021/08/20 00:54:25;;;;;;;7.63;4.95;;;;;;;;;;363922;146;857232;-58
2021/08/20 00:55:27;;;;;;;8.84;4.96;;;;;;;;;;366282;147;865600;-58
2021/08/20 00:56:29;;;;;;;9.50;5.26;;;;;;;;;;365104;146;859074;-58
2021/08/20 00:57:31;;;;;;;7.80;5.25;;;;;;;;;;364978;146;857410;-58
2021/08/20 00:58:33;;;;;;;8.31;5.03;;;;;;;;;;364710;146;857681;-58
2021/08/20 00:59:34;;;;;;;8.85;5.14;;;;;;;;;;363570;147;857765;-58
2021/08/20 01:00:40;;;;;;;7.78;5.15;;;;;;;;;;362552;147;857199;-58
2021/08/20 01:01:41;;;;;;;9.80;5.29;;;;;;;;;;364915;146;859258;-58
2021/08/20 01:02:44;;;;;;;9.69;5.52;;;;;;;;;;356001;149;859292;-58
2021/08/20 01:03:45;;;;;;;12.70;5.47;;;;;;;;;;366097;146;858497;-58
2021/08/20 01:04:47;;;;;;;6.12;4.80;;;;;;;;;;364897;147;857935;-58
2021/08/20 01:05:52;;;;;;;11.66;5.33;;;;;;;;;;363670;146;860303;-58
2021/08/20 01:06:55;;;;;;;11.39;5.02;;;;;;;;;;363136;147;857883;-57
2021/08/20 01:07:58;;;;;;;9.57;4.78;;;;;;;;;;365553;147;858681;-58
2021/08/20 01:08:59;;;;;;;7.19;5.08;;;;;;;;;;364850;147;857224;-58
2021/08/20 01:10:01;;;;;;;11.28;4.66;;;;;;;;;;363371;146;857183;-58
2021/08/20 01:11:04;;;;;;;12.82;4.86;;;;;;;;;;364812;146;866490;-57
2021/08/20 01:12:06;;;;;;;7.55;4.89;;;;;;;;;;363217;146;864807;-58
2021/08/20 01:13:08;;;;;;;10.17;5.17;;;;;;;;;;364899;146;865613;-57
2021/08/20 01:14:09;;;;;;;7.01;5.13;;;;;;;;;;363668;146;858677;-58
2021/08/20 01:15:11;;;;;;;8.23;5.26;;;;;;;;;;365287;147;857244;-58
2021/08/20 01:16:15;;;;;;;7.68;4.78;;;;;;;;;;362531;146;864638;-57
2021/08/20 01:17:17;;;;;;;7.51;4.77;;;;;;;;;;364746;146;858970;-57
2021/08/20 01:18:22;;;;;;;7.43;4.60;;;;;;;;;;365580;146;857262;-58
2021/08/20 01:19:24;;;;;;;7.98;4.92;;;;;;;;;;365163;147;858081;-58
2021/08/20 01:20:26;;;;;;;10.38;4.90;;;;;;;;;;361326;146;857299;-58
2021/08/20 01:21:28;;;;;;;7.65;4.54;;;;;;;;;;365446;146;857274;-57
2021/08/20 01:22:29;;;;;;;8.71;5.10;;;;;;;;;;366044;146;865467;-58
2021/08/20 01:23:31;;;;;;;7.94;5.04;;;;;;;;;;365632;146;865752;-58
2021/08/20 01:24:33;;;;;;;9.71;4.97;;;;;;;;;;365290;146;857219;-57
2021/08/20 01:25:35;;;;;;;7.01;4.63;;;;;;;;;;365739;146;864858;-58
2021/08/20 01:26:38;;;;;;;10.18;5.16;;;;;;;;;;365267;146;864826;-59
2021/08/20 01:27:40;;;;;;;8.03;5.16;;;;;;;;;;366935;146;858841;-58
2021/08/20 01:28:41;;;;;;;9.13;4.84;;;;;;;;;;364347;146;864773;-57
2021/08/20 01:29:43;;;;;;;6.63;4.77;;;;;;;;;;363806;146;857174;-57
2021/08/20 01:30:45;;;;;;;6.82;4.61;;;;;;;;;;364165;147;866528;-58
2021/08/20 01:31:47;;;;;;;7.59;5.36;;;;;;;;;;364753;147;857171;-57
2021/08/20 01:32:48;;;;;;;6.08;4.59;;;;;;;;;;365445;146;859764;-57
2021/08/20 01:33:50;;;;;;;9.18;4.56;;;;;;;;;;364897;146;857397;-58
2021/08/20 01:34:51;;;;;;;7.78;4.77;;;;;;;;;;364995;146;858474;-58
2021/08/20 01:35:53;;;;;;;7.74;5.14;;;;;;;;;;363761;147;864661;-58
2021/08/20 01:36:54;;;;;;;8.64;4.55;;;;;;;;;;363226;146;857142;-57
2021/08/20 01:37:56;;;;;;;9.43;4.76;;;;;;;;;;363708;146;864933;-56
2021/08/20 01:38:58;;;;;;;8.45;4.99;;;;;;;;;;362278;146;859294;-57
2021/08/20 01:39:59;;;;;;;11.94;4.96;;;;;;;;;;362443;147;858334;-57
2021/08/20 01:41:01;;;;;;;6.12;4.77;;;;;;;;;;363216;146;864933;-57
2021/08/20 01:42:03;;;;;;;6.30;4.92;;;;;;;;;;363434;147;857094;-57
2021/08/20 01:43:04;;;;;;;6.11;4.51;;;;;;;;;;363312;146;857827;-60
2021/08/20 01:44:06;;;;;;;7.75;4.54;;;;;;;;;;363998;146;865750;-58
2021/08/20 01:45:08;;;;;;;6.32;4.56;;;;;;;;;;362715;146;858734;-58
2021/08/20 01:46:10;;;;;;;8.96;4.93;;;;;;;;;;362808;146;857271;-58
2021/08/20 01:47:11;;;;;;;8.29;4.84;;;;;;;;;;366443;146;858670;-58
2021/08/20 01:48:13;;;;;;;8.77;4.86;;;;;;;;;;364106;146;857241;-57
2021/08/20 01:49:14;;;;;;;8.06;4.71;;;;;;;;;;364614;147;857409;-57
2021/08/20 01:50:16;;;;;;;6.65;4.66;;;;;;;;;;365835;146;864733;-57
2021/08/20 01:51:18;;;;;;;6.64;4.39;;;;;;;;;;365494;146;857294;-58
2021/08/20 01:52:20;;;;;;;8.89;4.32;;;;;;;;;;364865;146;858850;-57
2021/08/20 01:53:22;;;;;;;8.17;4.74;;;;;;;;;;364893;147;857326;-58
2021/08/20 01:54:23;;;;;;;8.34;5.21;;;;;;;;;;366316;146;857162;-57
2021/08/20 01:55:25;;;;;;;7.01;4.50;;;;;;;;;;362770;146;860465;-58
2021/08/20 01:56:29;;;;;;;8.10;4.99;;;;;;;;;;362870;146;857141;-58
2021/08/20 01:57:31;;;;;;;8.36;5.04;;;;;;;;;;364918;146;857160;-58
2021/08/20 01:58:33;;;;;;;7.49;4.99;;;;;;;;;;361848;148;864816;-58
2021/08/20 01:59:35;;;;;;;10.91;5.48;;;;;;;;;;360820;146;857265;-58
2021/08/20 02:00:37;;;;;;;7.60;4.92;;;;;;;;;;362218;147;857144;-58
2021/08/20 02:01:39;;;;;;;7.27;4.93;;;;;;;;;;362458;146;857703;-58
2021/08/20 02:02:40;;;;;;;7.91;5.10;;;;;;;;;;358937;147;857251;-58
2021/08/20 02:03:42;;;;;;;7.91;5.14;;;;;;;;;;362191;145;857191;-58
2021/08/20 02:04:43;;;;;;;6.65;4.84;;;;;;;;;;361713;148;864731;-58
2021/08/20 02:05:45;;;;;;;10.41;4.66;;;;;;;;;;361494;146;857209;-58
2021/08/20 02:06:47;;;;;;;6.54;4.74;;;;;;;;;;362586;146;858105;-58
2021/08/20 02:07:48;;;;;;;9.82;4.67;;;;;;;;;;362562;147;867766;-58
2021/08/20 02:08:50;;;;;;;10.41;5.32;;;;;;;;;;360872;146;859591;-58
2021/08/20 02:09:51;;;;;;;8.52;4.63;;;;;;;;;;361225;148;859759;-58
2021/08/20 02:10:55;;;;;;;7.08;4.62;;;;;;;;;;361180;147;857189;-57
2021/08/20 02:11:56;;;;;;;9.19;5.09;;;;;;;;;;361978;147;857877;-57
2021/08/20 02:12:59;;;;;;;8.45;4.92;;;;;;;;;;362168;146;857191;-58
2021/08/20 02:14:01;;;;;;;8.68;4.80;;;;;;;;;;361507;146;864951;-57
2021/08/20 02:15:02;;;;;;;8.92;4.64;;;;;;;;;;361475;146;857156;-57
2021/08/20 02:16:04;;;;;;;13.49;4.89;;;;;;;;;;360304;146;859472;-58
2021/08/20 02:17:06;;;;;;;7.57;4.46;;;;;;;;;;360910;146;865185;-57
2021/08/20 02:18:07;;;;;;;8.61;4.76;;;;;;;;;;361680;146;858029;-58
2021/08/20 02:19:09;;;;;;;8.59;4.29;;;;;;;;;;361136;146;857547;-58
2021/08/20 02:20:11;;;;;;;6.25;4.64;;;;;;;;;;360222;147;857325;-58
2021/08/20 02:21:13;;;;;;;7.14;4.95;;;;;;;;;;364524;146;857250;-58
2021/08/20 02:22:14;;;;;;;10.26;4.43;;;;;;;;;;360338;147;864908;-58
2021/08/20 02:23:16;;;;;;;7.01;4.86;;;;;;;;;;360761;146;865973;-58
2021/08/20 02:24:17;;;;;;;7.39;4.54;;;;;;;;;;362927;146;859945;-58
2021/08/20 02:25:19;;;;;;;8.79;4.65;;;;;;;;;;362795;146;859153;-58
2021/08/20 02:26:21;;;;;;;12.09;4.73;;;;;;;;;;362344;146;857276;-58
2021/08/20 02:27:23;;;;;;;8.71;4.64;;;;;;;;;;361736;146;864873;-59
2021/08/20 02:28:25;;;;;;;11.59;5.29;;;;;;;;;;360982;148;857127;-59
2021/08/20 02:29:26;;;;;;;10.70;5.03;;;;;;;;;;360907;148;857268;-59
2021/08/20 02:30:29;;;;;;;8.43;4.35;;;;;;;;;;360158;146;857312;-58
2021/08/20 02:31:30;;;;;;;7.39;4.45;;;;;;;;;;361877;146;857886;-59
2021/08/20 02:32:32;;;;;;;7.83;4.39;;;;;;;;;;360269;148;866058;-58
2021/08/20 02:33:34;;;;;;;7.61;4.73;;;;;;;;;;359435;146;859688;-58
2021/08/20 02:34:36;;;;;;;7.62;4.39;;;;;;;;;;360863;147;858733;-58
2021/08/20 02:35:37;;;;;;;9.21;4.36;;;;;;;;;;353893;149;857961;-59
2021/08/20 02:36:39;;;;;;;5.88;4.21;;;;;;;;;;352903;150;857780;-59
2021/08/20 02:37:41;;;;;;;7.35;4.35;;;;;;;;;;352238;151;857156;-59
2021/08/20 02:38:42;;;;;;;11.08;5.12;;;;;;;;;;352581;151;857232;-59
2021/08/20 02:39:44;;;;;;;7.80;4.19;;;;;;;;;;353185;151;857326;-59
2021/08/20 02:40:47;;;;;;;13.55;4.84;;;;;;;;;;351685;152;864775;-58
2021/08/20 02:41:48;;;;;;;8.65;4.19;;;;;;;;;;353476;151;864927;-59
2021/08/20 02:42:50;;;;;;;8.90;4.69;;;;;;;;;;347433;151;857344;-57
2021/08/20 02:43:52;;;;;;;10.55;4.69;;;;;;;;;;350934;151;867047;-58
2021/08/20 02:44:53;;;;;;;8.76;4.66;;;;;;;;;;349393;151;866540;-57
2021/08/20 02:45:56;;;;;;;6.50;4.51;;;;;;;;;;350164;151;865648;-57
2021/08/20 02:46:59;;;;;;;9.58;4.82;;;;;;;;;;351873;149;865593;-58
2021/08/20 02:48:01;;;;;;;8.28;4.15;;;;;;;;;;352006;151;857243;-57
2021/08/20 02:49:02;;;;;;;11.44;5.16;;;;;;;;;;351180;151;864949;-58
2021/08/20 02:50:04;;;;;;;7.76;4.68;;;;;;;;;;353300;150;859743;-58
2021/08/20 02:51:07;;;;;;;7.56;4.29;;;;;;;;;;352747;149;864896;-59
2021/08/20 02:52:09;;;;;;;8.19;4.72;;;;;;;;;;353770;151;857779;-58
2021/08/20 02:53:11;;;;;;;6.87;4.37;;;;;;;;;;353550;151;859849;-58
2021/08/20 02:54:12;;;;;;;11.74;4.56;;;;;;;;;;352434;150;856698;-58
2021/08/20 02:55:14;;;;;;;8.30;4.34;;;;;;;;;;352483;150;857385;-58
2021/08/20 02:56:16;;;;;;;8.89;4.35;;;;;;;;;;353061;152;857348;-58
2021/08/20 02:57:22;;;;;;;12.11;4.17;;;;;;;;;;351233;150;864839;-58
2021/08/20 02:58:21;;;;;;;9.71;4.23;;;;;;;;;;352553;150;864851;-57
2021/08/20 02:59:23;;;;;;;9.63;4.56;;;;;;;;;;352812;151;859297;-57
2021/08/20 03:00:25;;;;;;;9.49;4.67;;;;;;;;;;353792;151;858277;-58
2021/08/20 03:01:27;;;;;;;6.83;4.04;;;;;;;;;;354459;150;857175;-57
2021/08/20 03:02:28;;;;;;;9.18;4.24;;;;;;;;;;348870;152;866545;-59
2021/08/20 03:03:30;;;;;;;12.49;4.35;;;;;;;;;;354667;151;857261;-58
2021/08/20 03:04:31;;;;;;;11.56;5.08;;;;;;;;;;347523;153;859092;-58
2021/08/20 03:05:33;;;;;;;9.66;4.34;;;;;;;;;;349405;153;857340;-58
2021/08/20 03:06:36;;;;;;;10.72;4.53;;;;;;;;;;354437;150;858746;-58
2021/08/20 03:07:38;;;;;;;13.31;4.20;;;;;;;;;;350535;151;857353;-58
2021/08/20 03:08:39;;;;;;;6.71;3.76;;;;;;;;;;351055;152;860040;-58
2021/08/20 03:09:41;;;;;;;10.11;4.27;;;;;;;;;;351055;150;857734;-57
2021/08/20 03:10:43;;;;;;;16.12;4.65;;;;;;;;;;349818;150;860544;-58
2021/08/20 03:11:45;;;;;;;9.45;4.46;;;;;;;;;;349859;151;858999;-58
2021/08/20 03:12:47;;;;;;;11.55;5.49;;;;;;;;;;355053;150;866338;-57
2021/08/20 03:13:48;;;;;;;7.21;4.52;;;;;;;;;;352611;149;858558;-58
2021/08/20 03:14:50;;;;;;;7.36;4.71;;;;;;;;;;352465;151;857321;-58
2021/08/20 03:15:51;;;;;;;10.46;4.60;;;;;;;;;;349520;151;857305;-58
2021/08/20 03:16:54;;;;;;;6.78;4.45;;;;;;;;;;351991;150;864702;-57
2021/08/20 03:17:56;;;;;;;8.38;5.21;;;;;;;;;;354859;150;857407;-58
2021/08/20 03:18:57;;;;;;;9.65;4.54;;;;;;;;;;352080;150;859686;-58
2021/08/20 03:19:59;;;;;;;6.21;4.14;;;;;;;;;;351018;151;857386;-58
2021/08/20 03:21:01;;;;;;;9.45;4.96;;;;;;;;;;354995;149;857351;-59
2021/08/20 03:22:02;;;;;;;11.65;4.62;;;;;;;;;;352930;150;857202;-57
2021/08/20 03:23:04;;;;;;;7.51;4.91;;;;;;;;;;354369;149;859312;-59
2021/08/20 03:24:06;;;;;;;10.99;4.91;;;;;;;;;;352974;151;865377;-58
2021/08/20 03:25:08;;;;;;;8.44;4.51;;;;;;;;;;354406;150;857252;-58
2021/08/20 03:26:11;;;;;;;10.80;4.71;;;;;;;;;;354596;150;866604;-58
2021/08/20 03:27:12;;;;;;;10.62;4.61;;;;;;;;;;355164;151;856683;-59
2021/08/20 03:28:14;;;;;;;9.06;4.64;;;;;;;;;;356249;149;856540;-57
2021/08/20 03:29:15;;;;;;;7.59;4.67;;;;;;;;;;350438;151;857306;-59
2021/08/20 03:30:18;;;;;;;7.67;4.31;;;;;;;;;;346316;152;857291;-60
2021/08/20 03:31:20;;;;;;;6.31;4.41;;;;;;;;;;354765;151;864692;-59
2021/08/20 03:32:22;;;;;;;9.83;5.19;;;;;;;;;;353156;150;858850;-57
2021/08/20 03:33:23;;;;;;;12.29;5.18;;;;;;;;;;355483;150;859118;-58
2021/08/20 03:34:25;;;;;;;6.38;4.13;;;;;;;;;;349204;152;857440;-59
2021/08/20 03:35:26;;;;;;;6.94;4.35;;;;;;;;;;350755;152;858980;-57
2021/08/20 03:36:30;;;;;;;8.24;4.40;;;;;;;;;;353924;149;857223;-59
2021/08/20 03:37:31;;;;;;;10.15;4.78;;;;;;;;;;353014;150;857993;-59
2021/08/20 03:38:33;;;;;;;6.21;4.74;;;;;;;;;;353684;149;857457;-59
2021/08/20 03:39:34;;;;;;;7.87;4.79;;;;;;;;;;351867;151;857299;-59
2021/08/20 03:40:37;;;;;;;10.84;5.05;;;;;;;;;;353624;150;858937;-59
2021/08/20 03:41:39;;;;;;;9.87;4.89;;;;;;;;;;355247;150;857278;-60
2021/08/20 03:42:41;;;;;;;11.97;4.37;;;;;;;;;;351729;151;858932;-59
2021/08/20 03:43:42;;;;;;;8.02;4.16;;;;;;;;;;350363;152;866389;-59
2021/08/20 03:44:44;;;;;;;8.01;4.41;;;;;;;;;;350674;152;865990;-58
2021/08/20 03:45:45;;;;;;;7.36;4.49;;;;;;;;;;347374;153;865151;-59
2021/08/20 03:46:49;;;;;;;7.13;4.44;;;;;;;;;;350110;152;857292;-58
2021/08/20 03:47:50;;;;;;;6.82;3.69;;;;;;;;;;349590;151;857258;-58
2021/08/20 03:48:52;;;;;;;9.37;4.67;;;;;;;;;;348564;153;859210;-58
2021/08/20 03:49:54;;;;;;;10.20;4.26;;;;;;;;;;354362;150;864747;-58
2021/08/20 03:50:57;;;;;;;9.26;4.28;;;;;;;;;;353243;151;859002;-58
2021/08/20 03:51:58;;;;;;;5.98;4.41;;;;;;;;;;353083;150;857232;-59
2021/08/20 03:53:00;;;;;;;13.49;4.42;;;;;;;;;;348373;153;866502;-59
2021/08/20 03:54:01;;;;;;;8.99;4.14;;;;;;;;;;352260;151;859054;-58
2021/08/20 03:55:03;;;;;;;6.10;4.16;;;;;;;;;;349181;152;857609;-60
2021/08/20 03:56:06;;;;;;;6.99;4.33;;;;;;;;;;351270;151;858543;-62
2021/08/20 03:57:07;;;;;;;6.14;4.19;;;;;;;;;;353509;149;865676;-60
2021/08/20 03:58:09;;;;;;;9.95;4.10;;;;;;;;;;352844;151;864877;-61
2021/08/20 03:59:11;;;;;;;11.69;4.14;;;;;;;;;;352626;151;857915;-61
2021/08/20 04:00:14;;;;;;;5.98;3.89;;;;;;;;;;357298;149;856851;-58
2021/08/20 04:01:15;;;;;;;8.24;4.39;;;;;;;;;;351152;149;859001;-61
2021/08/20 04:02:17;;;;;;;7.19;4.49;;;;;;;;;;359020;149;857826;-59
2021/08/20 04:03:19;;;;;;;6.40;4.01;;;;;;;;;;351947;149;857213;-57
2021/08/20 04:04:20;;;;;;;12.06;4.51;;;;;;;;;;352952;151;857265;-58
2021/08/20 04:05:22;;;;;;;9.47;3.85;;;;;;;;;;352589;151;857183;-60
2021/08/20 04:06:25;;;;;;;13.66;5.57;;;;;;;;;;357045;149;857109;-59
2021/08/20 04:07:26;;;;;;;12.87;4.24;;;;;;;;;;358521;149;857271;-60
2021/08/20 04:08:28;;;;;;;10.56;4.74;;;;;;;;;;357212;149;857061;-59
2021/08/20 04:09:29;;;;;;;6.09;4.26;;;;;;;;;;353525;149;858933;-58
2021/08/20 04:10:32;;;;;;;7.34;4.72;;;;;;;;;;357525;149;857402;-58
2021/08/20 04:11:34;;;;;;;5.55;4.32;;;;;;;;;;356974;149;865630;-58
2021/08/20 04:12:35;;;;;;;7.79;4.41;;;;;;;;;;351021;151;860379;-58
2021/08/20 04:13:37;;;;;;;7.16;4.10;;;;;;;;;;351783;149;858975;-57
2021/08/20 04:14:39;;;;;;;7.47;4.53;;;;;;;;;;358360;149;858767;-58
2021/08/20 04:15:40;;;;;;;8.66;4.88;;;;;;;;;;358416;149;859855;-57
2021/08/20 04:16:43;;;;;;;8.03;4.96;;;;;;;;;;357734;149;857739;-58
2021/08/20 04:17:44;;;;;;;7.94;4.21;;;;;;;;;;353966;149;857910;-58
2021/08/20 04:18:46;;;;;;;11.66;4.06;;;;;;;;;;357251;149;857118;-58
2021/08/20 04:19:47;;;;;;;6.11;4.14;;;;;;;;;;350992;149;857308;-59
2021/08/20 04:20:50;;;;;;;9.45;4.57;;;;;;;;;;351570;152;857270;-59
2021/08/20 04:21:51;;;;;;;7.16;4.34;;;;;;;;;;351356;150;857259;-61
2021/08/20 04:22:55;;;;;;;8.33;4.39;;;;;;;;;;351895;149;859084;-62
2021/08/20 04:23:57;;;;;;;7.81;4.34;;;;;;;;;;351125;149;857209;-59
2021/08/20 04:24:59;;;;;;;6.75;4.07;;;;;;;;;;355645;149;859054;-60
2021/08/20 04:26:01;;;;;;;9.59;5.06;;;;;;;;;;352272;149;857339;-60
2021/08/20 04:27:02;;;;;;;7.33;4.53;;;;;;;;;;348635;152;865549;-61
2021/08/20 04:28:04;;;;;;;6.79;4.44;;;;;;;;;;352309;150;865140;-59
2021/08/20 04:29:06;;;;;;;6.37;4.41;;;;;;;;;;352348;151;866638;-60
2021/08/20 04:30:09;;;;;;;5.33;4.47;;;;;;;;;;351600;152;857388;-59
2021/08/20 04:31:11;;;;;;;5.34;3.84;;;;;;;;;;350827;151;857403;-59
2021/08/20 04:32:12;;;;;;;6.71;4.77;;;;;;;;;;353129;150;859221;-59
2021/08/20 04:33:14;;;;;;;5.06;4.13;;;;;;;;;;352575;151;857247;-59
2021/08/20 04:34:15;;;;;;;5.32;4.26;;;;;;;;;;353367;149;857287;-59
2021/08/20 04:35:17;;;;;;;8.44;4.27;;;;;;;;;;351169;151;857271;-59
2021/08/20 04:36:19;;;;;;;6.84;4.31;;;;;;;;;;353488;150;857124;-59
2021/08/20 04:37:23;;;;;;;5.91;4.70;;;;;;;;;;359261;149;857395;-59
2021/08/20 04:38:24;;;;;;;7.22;3.91;;;;;;;;;;358158;149;858446;-58
2021/08/20 04:39:25;;;;;;;6.04;4.02;;;;;;;;;;356116;148;857226;-59
2021/08/20 04:40:28;;;;;;;7.93;4.07;;;;;;;;;;352464;149;858408;-58
2021/08/20 04:41:29;;;;;;;6.64;4.59;;;;;;;;;;348908;153;857579;-59
2021/08/20 04:42:31;;;;;;;9.17;4.35;;;;;;;;;;354794;150;859372;-59
2021/08/20 04:43:33;;;;;;;6.32;4.35;;;;;;;;;;355446;148;865498;-59
2021/08/20 04:44:34;;;;;;;5.70;4.33;;;;;;;;;;356947;150;857598;-59
2021/08/20 04:45:36;;;;;;;6.73;4.05;;;;;;;;;;354812;150;857179;-59
2021/08/20 04:46:39;;;;;;;6.49;4.40;;;;;;;;;;355327;149;857244;-60
2021/08/20 04:47:40;;;;;;;7.56;4.20;;;;;;;;;;355447;149;857244;-59
2021/08/20 04:48:42;;;;;;;6.65;3.95;;;;;;;;;;355438;150;864679;-59
2021/08/20 04:49:44;;;;;;;4.98;3.81;;;;;;;;;;354923;150;857154;-60
2021/08/20 04:50:50;;;;;;;6.56;3.87;;;;;;;;;;356174;149;864775;-60
2021/08/20 04:51:50;;;;;;;5.37;3.96;;;;;;;;;;348431;153;858744;-59
2021/08/20 04:52:52;;;;;;;6.83;4.47;;;;;;;;;;351173;151;859567;-60
2021/08/20 04:53:54;;;;;;;5.45;3.77;;;;;;;;;;351740;151;864790;-61
2021/08/20 04:54:55;;;;;;;5.81;3.90;;;;;;;;;;354538;149;857192;-60
2021/08/20 04:55:57;;;;;;;5.14;3.72;;;;;;;;;;353353;149;864812;-61
2021/08/20 04:56:59;;;;;;;5.39;3.73;;;;;;;;;;364920;147;857789;-60
2021/08/20 04:58:01;;;;;;;4.86;3.58;;;;;;;;;;363390;147;857421;-60
2021/08/20 04:59:03;;;;;;;6.91;3.77;;;;;;;;;;364449;146;866536;-60
2021/08/20 05:00:05;;;;;;;6.30;3.78;;;;;;;;;;363289;146;858912;-61
2021/08/20 05:01:07;;;;;;;7.20;3.85;;;;;;;;;;363762;146;865812;-61
2021/08/20 05:02:08;;;;;;;4.53;4.02;;;;;;;;;;362704;146;860077;-62
2021/08/20 05:03:10;;;;;;;5.00;3.86;;;;;;;;;;365493;146;865044;-61
2021/08/20 05:04:11;;;;;;;4.33;3.36;;;;;;;;;;365105;146;857329;-61
2021/08/20 05:05:13;;;;;;;6.83;3.93;;;;;;;;;;365085;146;857349;-62
2021/08/20 05:06:15;;;;;;;7.37;4.19;;;;;;;;;;363581;146;859134;-61
2021/08/20 05:07:17;;;;;;;5.81;3.99;;;;;;;;;;350619;151;858024;-61
2021/08/20 05:08:18;;;;;;;6.26;3.70;;;;;;;;;;360422;147;858848;-60
2021/08/20 05:09:20;;;;;;;4.88;3.95;;;;;;;;;;362038;146;858106;-59
2021/08/20 05:10:23;;;;;;;7.43;4.19;;;;;;;;;;363816;146;857179;-60
2021/08/20 05:11:25;;;;;;;5.51;3.79;;;;;;;;;;364231;144;865457;-60
2021/08/20 05:12:26;;;;;;;9.61;4.27;;;;;;;;;;364063;147;864841;-60
2021/08/20 05:13:28;;;;;;;7.14;4.14;;;;;;;;;;364435;147;865262;-60
2021/08/20 05:14:29;;;;;;;5.38;3.79;;;;;;;;;;364035;147;857282;-60
2021/08/20 05:15:31;;;;;;;6.62;4.06;;;;;;;;;;362596;146;859812;-60
2021/08/20 05:16:33;;;;;;;6.30;3.79;;;;;;;;;;364827;146;865579;-60
2021/08/20 05:17:35;;;;;;;5.37;3.97;;;;;;;;;;364027;146;857347;-60
2021/08/20 05:18:37;;;;;;;5.37;3.90;;;;;;;;;;363503;147;858724;-60
2021/08/20 05:19:39;;;;;;;8.88;4.03;;;;;;;;;;364314;146;857305;-61
2021/08/20 05:20:42;;;;;;;4.87;3.71;;;;;;;;;;363306;147;857377;-60
2021/08/20 05:21:44;;;;;;;7.42;3.83;;;;;;;;;;357688;149;857299;-62
2021/08/20 05:22:51;;;;;;;4.94;3.84;;;;;;;;;;357116;148;859437;-62
2021/08/20 05:23:52;;;;;;;7.24;4.01;;;;;;;;;;364252;147;866512;-62
2021/08/20 05:24:54;;;;;;;4.61;3.47;;;;;;;;;;363402;147;857159;-62
2021/08/20 05:25:56;;;;;;;5.83;3.83;;;;;;;;;;364038;146;858944;-59
2021/08/20 05:26:58;;;;;;;5.41;3.52;;;;;;;;;;361059;147;858643;-60
2021/08/20 05:27:59;;;;;;;4.91;3.56;;;;;;;;;;358895;147;864846;-60
2021/08/20 05:29:01;;;;;;;5.27;3.89;;;;;;;;;;365539;146;857747;-60
2021/08/20 05:30:03;;;;;;;5.65;3.46;;;;;;;;;;365493;146;857741;-59
2021/08/20 05:31:04;;;;;;;4.72;3.99;;;;;;;;;;364957;147;864651;-60
2021/08/20 05:32:06;;;;;;;7.41;3.81;;;;;;;;;;364498;147;864953;-60
2021/08/20 05:33:08;;;;;;;6.35;3.67;;;;;;;;;;364528;146;859782;-60
2021/08/20 05:34:09;;;;;;;6.67;3.75;;;;;;;;;;365017;146;860986;-60
2021/08/20 05:35:11;;;;;;;3.88;3.42;;;;;;;;;;365951;147;857309;-60
2021/08/20 05:36:14;;;;;;;4.06;3.42;;;;;;;;;;364164;147;857607;-60
2021/08/20 05:37:15;;;;;;;4.81;3.60;;;;;;;;;;364159;146;857329;-62
2021/08/20 05:38:17;;;;;;;5.49;3.73;;;;;;;;;;358387;147;857144;-62
2021/08/20 05:39:19;;;;;;;6.22;3.49;;;;;;;;;;365360;147;857285;-61
2021/08/20 05:40:22;;;;;;;5.27;3.51;;;;;;;;;;364311;146;857138;-62
2021/08/20 05:41:23;;;;;;;6.49;3.65;;;;;;;;;;362508;147;857675;-62
2021/08/20 05:42:25;;;;;;;6.47;3.63;;;;;;;;;;360380;147;857343;-63
2021/08/20 05:43:28;;;;;;;6.73;3.81;;;;;;;;;;360101;147;857143;-61
2021/08/20 05:44:30;;;;;;;5.31;3.52;;;;;;;;;;365487;146;864819;-61
2021/08/20 05:45:36;;;;;;;4.76;3.50;;;;;;;;;;364372;146;858254;-61
2021/08/20 05:46:35;;;;;;;7.79;3.61;;;;;;;;;;365338;146;857213;-61
2021/08/20 05:47:37;;;;;;;8.19;3.75;;;;;;;;;;362983;146;864905;-61
2021/08/20 05:48:39;;;;;;;5.36;3.56;;;;;;;;;;364913;146;864696;-61
2021/08/20 05:49:41;;;;;;;4.32;3.43;;;;;;;;;;364650;146;864773;-61
2021/08/20 05:50:43;;;;;;;5.28;3.80;;;;;;;;;;364135;147;857244;-61
2021/08/20 05:51:44;;;;;;;4.84;3.43;;;;;;;;;;363027;147;858921;-61
2021/08/20 05:52:46;;;;;;;4.61;3.36;;;;;;;;;;364802;146;857414;-61
2021/08/20 05:53:48;;;;;;;6.26;3.65;;;;;;;;;;365981;147;860310;-62
2021/08/20 05:54:49;;;;;;;4.86;3.68;;;;;;;;;;365717;147;859322;-61
2021/08/20 05:55:51;;;;;;;5.71;3.63;;;;;;;;;;364514;147;858765;-61
2021/08/20 05:56:53;;;;;;;4.98;3.34;;;;;;;;;;364610;146;859230;-60
2021/08/20 05:57:54;;;;;;;5.64;3.41;;;;;;;;;;360015;147;858523;-60
2021/08/20 05:58:56;;;;;;;7.69;3.68;;;;;;;;;;362980;147;857586;-61
2021/08/20 05:59:58;;;;;;;4.13;3.21;;;;;;;;;;364902;146;857266;-60
2021/08/20 06:01:01;;;;;;;5.10;3.24;;;;;;;;;;363898;147;857793;-61
2021/08/20 06:02:02;;;;;;;5.64;3.54;;;;;;;;;;366129;147;857246;-61
2021/08/20 06:03:04;;;;;;;4.97;3.42;;;;;;;;;;366165;146;857771;-62
2021/08/20 06:04:06;;;;;;;8.04;3.20;;;;;;;;;;363753;146;866703;-61